createdAt,value
2022-08-08T00:02:32.850Z,51157.38
2022-08-08T00:05:03.079Z,51159.41
2022-08-08T00:07:46.431Z,51159.41
2022-08-08T00:10:35.293Z,51145.19
2022-08-08T00:14:15.421Z,51181.72
2022-08-08T00:16:13.339Z,51175.63
2022-08-08T00:19:09.647Z,51137.09
2022-08-08T00:21:43.798Z,51169.53
2022-08-08T00:24:30.067Z,51181.72
2022-08-08T00:27:01.242Z,51165.50
2022-08-08T00:29:45.904Z,51210.13
2022-08-08T00:32:35.329Z,51183.75
2022-08-08T00:35:25.493Z,51204.03
2022-08-08T00:38:31.882Z,51238.53
2022-08-08T00:41:45.273Z,51244.63
2022-08-08T00:44:50.895Z,51277.09
2022-08-08T00:48:05.522Z,51218.25
2022-08-08T00:50:55.820Z,51295.34
2022-08-08T00:54:15.979Z,51281.16
2022-08-08T00:56:56.071Z,51244.63
2022-08-08T01:00:06.515Z,51281.16
2022-08-08T01:04:01.157Z,51291.31
2022-08-08T01:06:17.131Z,51273.03
2022-08-08T01:09:36.159Z,51299.41
2022-08-08T01:12:41.899Z,51344.06
2022-08-08T01:15:44.518Z,51331.88
2022-08-08T01:18:52.782Z,51329.84
2022-08-08T01:22:01.799Z,51311.59
2022-08-08T01:24:53.955Z,51321.75
2022-08-08T01:27:50.770Z,51344.06
2022-08-08T01:30:59.592Z,51392.75
2022-08-08T01:33:42.841Z,51384.66
2022-08-08T01:36:41.024Z,51413.06
2022-08-08T01:39:53.750Z,51417.13
2022-08-08T01:42:37.612Z,51409.00
2022-08-08T01:45:29.167Z,51431.31
2022-08-08T01:48:30.239Z,51443.50
2022-08-08T01:51:31.939Z,51421.16
2022-08-08T01:55:45.038Z,51425.22
2022-08-08T01:58:04.582Z,51471.91
2022-08-08T02:00:36.066Z,51547.00
2022-08-08T02:03:55.148Z,51496.25
2022-08-08T02:06:51.964Z,51461.75
2022-08-08T02:10:01.290Z,51433.34
2022-08-08T02:12:31.362Z,51478.00
2022-08-08T02:15:11.464Z,51445.53
2022-08-08T02:17:51.256Z,51455.66
2022-08-08T02:21:02.819Z,51510.47
2022-08-08T02:23:32.007Z,51482.06
2022-08-08T02:26:10.185Z,51457.69
2022-08-08T02:28:51.539Z,51413.06
2022-08-08T02:32:05.196Z,51449.59
2022-08-08T02:35:13.733Z,51441.47
2022-08-08T02:38:25.278Z,51380.59
2022-08-08T02:41:59.183Z,51433.34
2022-08-08T02:44:43.139Z,51425.22
2022-08-08T02:47:54.793Z,51402.91
2022-08-08T02:50:55.706Z,51449.59
2022-08-08T02:53:42.495Z,51439.44
2022-08-08T02:56:45.658Z,51402.91
2022-08-08T02:59:37.015Z,51459.72
2022-08-08T03:03:00.787Z,51455.66
2022-08-08T03:05:59.223Z,51433.34
2022-08-08T03:09:04.631Z,51449.59
2022-08-08T03:12:16.912Z,51465.81
2022-08-08T03:16:01.150Z,51441.47
2022-08-08T03:18:34.839Z,51469.88
2022-08-08T03:21:09.509Z,51465.81
2022-08-08T03:23:54.717Z,51486.13
2022-08-08T03:26:30.802Z,51486.13
2022-08-08T03:29:03.314Z,51455.66
2022-08-08T03:32:06.430Z,51498.28
2022-08-08T03:34:35.215Z,51482.06
2022-08-08T03:37:20.178Z,51490.16
2022-08-08T03:40:00.441Z,51490.16
2022-08-08T03:42:30.862Z,51453.63
2022-08-08T03:44:57.573Z,51494.22
2022-08-08T03:47:25.793Z,51492.19
2022-08-08T03:50:19.822Z,51463.78
2022-08-08T03:52:46.930Z,51445.53
2022-08-08T03:55:56.597Z,51362.31
2022-08-08T03:58:30.074Z,51360.28
2022-08-08T04:01:01.803Z,51356.22
2022-08-08T04:04:00.163Z,51376.53
2022-08-08T04:06:22.473Z,51396.81
2022-08-08T04:08:49.545Z,51382.63
2022-08-08T04:11:17.643Z,51360.28
2022-08-08T04:14:04.243Z,51323.75
2022-08-08T04:16:38.934Z,51315.66
2022-08-08T04:19:23.339Z,51368.41
2022-08-08T04:21:51.563Z,51370.44
2022-08-08T04:24:28.332Z,51368.41
2022-08-08T04:26:57.509Z,51362.31
2022-08-08T04:29:24.838Z,51376.53
2022-08-08T04:31:59.555Z,51340.00
2022-08-08T04:34:31.858Z,51348.13
2022-08-08T04:37:10.232Z,51352.19
2022-08-08T04:40:04.621Z,51295.34
2022-08-08T04:42:25.969Z,51271.00
2022-08-08T04:44:55.646Z,51275.06
2022-08-08T04:47:24.502Z,51262.88
2022-08-08T04:50:00.663Z,51281.16
2022-08-08T04:52:33.408Z,51283.19
2022-08-08T04:55:01.460Z,51254.78
2022-08-08T04:57:28.283Z,51287.25
2022-08-08T04:59:55.333Z,51281.16
2022-08-08T05:02:30.428Z,51222.31
2022-08-08T05:04:59.569Z,51242.59
2022-08-08T05:07:27.151Z,51234.47
2022-08-08T05:10:05.614Z,51189.84
2022-08-08T05:12:36.816Z,51232.44
2022-08-08T05:15:09.468Z,51238.53
2022-08-08T05:17:54.392Z,51218.25
2022-08-08T05:20:21.196Z,51234.47
2022-08-08T05:22:51.284Z,51238.53
2022-08-08T05:25:18.268Z,51197.97
2022-08-08T05:27:48.057Z,51230.41
2022-08-08T05:30:14.893Z,51234.47
2022-08-08T05:32:42.555Z,51199.97
2022-08-08T05:35:10.110Z,51212.16
2022-08-08T05:37:53.020Z,51216.22
2022-08-08T05:40:28.476Z,51165.50
2022-08-08T05:43:38.786Z,51183.75
2022-08-08T05:46:03.097Z,51137.09
2022-08-08T05:48:32.233Z,51153.31
2022-08-08T05:51:13.325Z,51193.91
2022-08-08T05:53:56.082Z,51153.31
2022-08-08T05:56:38.675Z,51137.09
2022-08-08T05:59:58.831Z,51128.97
2022-08-08T06:02:40.697Z,51112.72
2022-08-08T06:05:32.891Z,51122.88
2022-08-08T06:08:02.895Z,51149.25
2022-08-08T06:10:39.136Z,51110.69
2022-08-08T06:13:07.801Z,51124.91
2022-08-08T06:15:50.890Z,51120.84
2022-08-08T06:18:22.297Z,51068.09
2022-08-08T06:20:52.904Z,51088.38
2022-08-08T06:23:32.730Z,51131.00
2022-08-08T06:26:44.562Z,51120.84
2022-08-08T06:29:26.274Z,51059.97
2022-08-08T06:32:10.422Z,51086.34
2022-08-08T06:34:56.501Z,51112.72
2022-08-08T06:37:37.431Z,51088.38
2022-08-08T06:40:12.120Z,51078.22
2022-08-08T06:42:57.741Z,51074.19
2022-08-08T06:45:27.182Z,51072.16
2022-08-08T06:48:01.392Z,51098.53
2022-08-08T06:50:31.760Z,51055.91
2022-08-08T06:53:10.087Z,51055.91
2022-08-08T06:55:42.194Z,51055.91
2022-08-08T06:58:09.857Z,51055.91
2022-08-08T07:00:40.812Z,51039.69
2022-08-08T07:03:19.782Z,51007.22
2022-08-08T07:06:03.278Z,51021.41
2022-08-08T07:08:37.189Z,51068.09
2022-08-08T07:11:05.282Z,51033.59
2022-08-08T07:14:00.832Z,51021.41
2022-08-08T07:16:51.305Z,51062.00
2022-08-08T07:19:37.977Z,51064.03
2022-08-08T07:22:18.292Z,51064.03
2022-08-08T07:25:01.708Z,51076.22
2022-08-08T07:28:01.818Z,51100.56
2022-08-08T07:30:25.782Z,51104.63
2022-08-08T07:32:53.469Z,51153.31
2022-08-08T07:35:21.549Z,51151.28
2022-08-08T07:38:04.540Z,51189.84
2022-08-08T07:40:37.579Z,51230.41
2022-08-08T07:43:09.421Z,51303.47
2022-08-08T07:46:05.170Z,51319.72
2022-08-08T07:51:23.394Z,51360.28
2022-08-08T07:54:34.802Z,51394.78
2022-08-08T07:57:16.991Z,51453.63
2022-08-08T08:00:05.464Z,51425.22
2022-08-08T08:03:04.185Z,51463.78
2022-08-08T08:05:33.950Z,51498.28
2022-08-08T08:08:06.811Z,51492.19
2022-08-08T08:10:35.898Z,51522.63
2022-08-08T08:13:43.013Z,51534.81
2022-08-08T08:16:21.789Z,51589.59
2022-08-08T08:18:58.354Z,51518.59
2022-08-08T08:21:35.332Z,51551.06
2022-08-08T08:24:12.025Z,51587.56
2022-08-08T08:26:39.657Z,51569.31
2022-08-08T08:29:13.895Z,51583.53
2022-08-08T08:31:43.290Z,51593.66
2022-08-08T08:34:09.824Z,51636.28
2022-08-08T08:36:37.198Z,51538.88
2022-08-08T08:39:07.567Z,51591.63
2022-08-08T08:41:48.624Z,51559.16
2022-08-08T08:44:16.177Z,51475.97
2022-08-08T08:46:51.044Z,51542.94
2022-08-08T08:49:27.713Z,51577.44
2022-08-08T08:52:01.721Z,51555.09
2022-08-08T08:54:32.439Z,51628.16
2022-08-08T08:57:02.863Z,51662.66
2022-08-08T09:00:00.126Z,51571.34
2022-08-08T09:02:34.326Z,51553.06
2022-08-08T09:05:04.319Z,51577.44
2022-08-08T09:07:39.419Z,51620.06
2022-08-08T09:10:19.841Z,51431.31
2022-08-08T09:12:50.943Z,51411.03
2022-08-08T09:15:24.206Z,51327.81
2022-08-08T09:18:04.292Z,51348.13
2022-08-08T09:22:02.280Z,51400.88
2022-08-08T09:23:25.516Z,51398.84
2022-08-08T09:26:02.138Z,51433.34
2022-08-08T09:28:37.981Z,51425.22
2022-08-08T09:31:15.555Z,51429.28
2022-08-08T09:34:06.082Z,51402.91
2022-08-08T09:36:34.128Z,51421.16
2022-08-08T09:39:15.279Z,51372.47
2022-08-08T09:42:14.896Z,51376.53
2022-08-08T09:44:43.143Z,51372.47
2022-08-08T09:47:25.495Z,51366.38
2022-08-08T09:50:04.825Z,51392.75
2022-08-08T09:53:05.720Z,51441.47
2022-08-08T09:55:31.163Z,51390.72
2022-08-08T09:58:27.701Z,51461.75
2022-08-08T10:01:14.897Z,51445.53
2022-08-08T10:03:58.478Z,51486.13
2022-08-08T10:06:29.935Z,51394.78
2022-08-08T10:09:00.807Z,51475.97
2022-08-08T10:12:27.506Z,51417.13
2022-08-08T10:14:28.636Z,51415.09
2022-08-08T10:17:03.742Z,51360.28
2022-08-08T10:19:58.560Z,51378.56
2022-08-08T10:22:28.522Z,51392.75
2022-08-08T10:27:57.790Z,51445.53
2022-08-08T10:30:59.643Z,51453.63
2022-08-08T10:33:12.486Z,51494.22
2022-08-08T10:36:19.358Z,51445.53
2022-08-08T10:38:30.995Z,51469.88
2022-08-08T10:41:03.557Z,51457.69
2022-08-08T10:43:40.346Z,51307.53
2022-08-08T10:46:30.802Z,51356.22
2022-08-08T10:48:59.342Z,51360.28
2022-08-08T10:51:31.086Z,51425.22
2022-08-08T10:54:02.039Z,51417.13
2022-08-08T10:56:35.823Z,51376.53
2022-08-08T10:59:12.222Z,51392.75
2022-08-08T11:01:49.603Z,51376.53
2022-08-08T11:04:38.682Z,51380.59
2022-08-08T11:07:07.168Z,51350.16
2022-08-08T11:09:34.250Z,51309.56
2022-08-08T11:12:12.639Z,51335.94
2022-08-08T11:14:54.354Z,51335.94
2022-08-08T11:17:58.155Z,51344.06
2022-08-08T11:20:13.203Z,51331.88
2022-08-08T11:22:41.029Z,51315.66
2022-08-08T11:25:14.750Z,51301.44
2022-08-08T11:27:46.967Z,51337.97
2022-08-08T11:30:24.419Z,51291.31
2022-08-08T11:32:56.718Z,51329.84
2022-08-08T11:35:42.153Z,51297.38
2022-08-08T11:38:36.543Z,51307.53
2022-08-08T11:40:56.708Z,51313.63
2022-08-08T11:43:39.573Z,51346.09
2022-08-08T11:46:13.962Z,51358.25
2022-08-08T11:48:47.075Z,51323.75
2022-08-08T11:51:37.960Z,51340.00
2022-08-08T11:54:04.202Z,51329.84
2022-08-08T11:56:35.709Z,51303.47
2022-08-08T11:59:10.474Z,51271.00
2022-08-08T12:01:37.737Z,51287.25
2022-08-08T12:04:05.677Z,51260.88
2022-08-08T12:06:33.666Z,51254.78
2022-08-08T12:09:08.153Z,51273.03
2022-08-08T12:11:43.994Z,51242.59
2022-08-08T12:14:22.940Z,51222.31
2022-08-08T12:16:52.498Z,51242.59
2022-08-08T12:19:37.405Z,51262.88
2022-08-08T12:22:13.221Z,51222.31
2022-08-08T12:24:53.971Z,51246.66
2022-08-08T12:27:26.525Z,51206.06
2022-08-08T12:29:59.031Z,51242.59
2022-08-08T12:32:25.830Z,51238.53
2022-08-08T12:35:04.747Z,51220.28
2022-08-08T12:37:41.190Z,51250.72
2022-08-08T12:40:22.979Z,51246.66
2022-08-08T12:42:52.625Z,51228.41
2022-08-08T12:45:58.515Z,51204.03
2022-08-08T12:48:38.003Z,51230.41
2022-08-08T12:51:04.655Z,51206.06
2022-08-08T12:53:35.247Z,51197.97
2022-08-08T12:56:18.713Z,51202.00
2022-08-08T12:58:50.619Z,51244.63
2022-08-08T13:01:17.141Z,51218.25
2022-08-08T13:03:51.968Z,51181.72
2022-08-08T13:06:20.325Z,51208.09
2022-08-08T13:08:53.711Z,51230.41
2022-08-08T13:12:24.455Z,51226.38
2022-08-08T13:14:37.617Z,51216.22
2022-08-08T13:17:05.879Z,51262.88
2022-08-08T13:19:49.676Z,51252.75
2022-08-08T13:22:17.828Z,51244.63
2022-08-08T13:24:48.811Z,51254.78
2022-08-08T13:27:21.691Z,51275.06
2022-08-08T13:30:00.124Z,51279.13
2022-08-08T13:32:30.248Z,51228.41
2022-08-08T13:34:59.442Z,51258.84
2022-08-08T13:37:28.139Z,51275.06
2022-08-08T13:40:18.154Z,51291.31
2022-08-08T13:42:53.519Z,51279.13
2022-08-08T13:45:23.922Z,51279.13
2022-08-08T13:48:00.688Z,51277.09
2022-08-08T13:50:35.188Z,51266.94
2022-08-08T13:53:24.587Z,51295.34
2022-08-08T13:56:05.244Z,51238.53
2022-08-08T13:58:33.087Z,51250.72
2022-08-08T14:01:15.409Z,51234.47
2022-08-08T14:03:54.244Z,51256.81
2022-08-08T14:06:33.230Z,51254.78
2022-08-08T14:09:24.420Z,51244.63
2022-08-08T14:11:50.834Z,51202.00
2022-08-08T14:14:21.260Z,51218.25
2022-08-08T14:16:53.594Z,51216.22
2022-08-08T14:19:57.577Z,51189.84
2022-08-08T14:22:26.764Z,51208.09
2022-08-08T14:24:59.747Z,51191.88
2022-08-08T14:27:33.337Z,51171.56
2022-08-08T14:30:17.286Z,51181.72
2022-08-08T14:32:53.271Z,51185.78
2022-08-08T14:35:24.461Z,51214.19
2022-08-08T14:38:09.357Z,51171.56
2022-08-08T14:40:40.454Z,51177.66
2022-08-08T14:43:22.573Z,51177.66
2022-08-08T14:46:06.225Z,51145.19
2022-08-08T14:48:57.221Z,51157.38
2022-08-08T14:51:47.215Z,51161.44
2022-08-08T14:54:13.916Z,51165.50
2022-08-08T14:56:42.799Z,51153.31
2022-08-08T14:59:22.025Z,51181.72
2022-08-08T15:01:58.477Z,51147.22
2022-08-08T15:04:26.233Z,51171.56
2022-08-08T15:06:52.893Z,51155.34
2022-08-08T15:09:22.541Z,51161.44
2022-08-08T15:11:53.124Z,51141.13
2022-08-08T15:14:25.234Z,51161.44
2022-08-08T15:16:53.410Z,51157.38
2022-08-08T15:19:21.008Z,51165.50
2022-08-08T15:21:50.355Z,51153.31
2022-08-08T15:24:16.922Z,51145.19
2022-08-08T15:26:52.403Z,51183.75
2022-08-08T15:29:18.990Z,51167.53
2022-08-08T15:32:03.492Z,51159.41
2022-08-08T15:34:36.415Z,51171.56
2022-08-08T15:37:05.730Z,51137.09
2022-08-08T15:39:38.453Z,51165.50
2022-08-08T15:42:13.449Z,51185.78
2022-08-08T15:44:51.457Z,51177.66
2022-08-08T15:47:20.426Z,51165.50
2022-08-08T15:49:48.930Z,51175.63
2022-08-08T15:52:17.948Z,51161.44
2022-08-08T15:54:51.418Z,51177.66
2022-08-08T15:57:18.452Z,51169.53
2022-08-08T16:00:06.325Z,51165.50
2022-08-08T16:02:32.076Z,51181.72
2022-08-08T16:07:53.884Z,51189.84
2022-08-08T16:13:04.844Z,51149.25
2022-08-08T16:13:45.735Z,51165.50
2022-08-08T16:16:17.166Z,51169.53
2022-08-08T16:18:53.451Z,51181.72
2022-08-08T16:21:27.710Z,51153.31
2022-08-08T16:23:55.875Z,51149.25
2022-08-08T16:26:29.201Z,51169.53
2022-08-08T16:29:01.481Z,51155.34
2022-08-08T16:31:30.077Z,51177.66
2022-08-08T16:33:59.365Z,51161.44
2022-08-08T16:36:27.987Z,51177.66
2022-08-08T16:39:00.680Z,51137.09
2022-08-08T16:41:27.078Z,51145.19
2022-08-08T16:43:55.879Z,51175.63
2022-08-08T16:46:37.057Z,51173.59
2022-08-08T16:49:04.666Z,51135.06
2022-08-08T16:55:03.017Z,51161.44
2022-08-08T16:55:20.751Z,51116.78
2022-08-08T16:57:22.956Z,51165.50
2022-08-08T16:59:52.595Z,51159.41
2022-08-08T17:02:38.052Z,51157.38
2022-08-08T17:05:07.512Z,51161.44
2022-08-08T17:07:37.698Z,51120.84
2022-08-08T17:10:07.897Z,51151.28
2022-08-08T17:12:34.714Z,51163.47
2022-08-08T17:15:17.147Z,51147.22
2022-08-08T17:18:02.673Z,51137.09
2022-08-08T17:20:32.366Z,51133.03
2022-08-08T17:23:16.609Z,51149.25
2022-08-08T17:28:35.686Z,51177.66
2022-08-08T17:31:39.420Z,51149.25
2022-08-08T17:34:52.733Z,51157.38
2022-08-08T17:36:37.413Z,51133.03
2022-08-08T17:39:05.461Z,51128.97
2022-08-08T17:41:58.285Z,51108.66
2022-08-08T17:44:26.991Z,51120.84
2022-08-08T17:46:55.100Z,51108.66
2022-08-08T17:49:24.923Z,51124.91
2022-08-08T17:51:55.082Z,51124.91
2022-08-08T17:54:22.201Z,51124.91
2022-08-08T17:56:54.023Z,51131.00
2022-08-08T17:59:23.380Z,51120.84
2022-08-08T18:02:01.823Z,51094.47
2022-08-08T18:04:32.875Z,51116.78
2022-08-08T18:07:05.828Z,51100.56
2022-08-08T18:09:52.220Z,51120.84
2022-08-08T18:12:19.708Z,51098.53
2022-08-08T18:14:50.228Z,51108.66
2022-08-08T18:17:28.513Z,51116.78
2022-08-08T18:20:43.110Z,51104.63
2022-08-08T18:22:53.477Z,51106.63
2022-08-08T18:25:20.120Z,51076.22
2022-08-08T18:27:46.878Z,51084.31
2022-08-08T18:30:13.911Z,51084.31
2022-08-08T18:32:44.265Z,51084.31
2022-08-08T18:35:15.743Z,51092.44
2022-08-08T18:37:48.629Z,51088.38
2022-08-08T18:40:15.204Z,51064.03
2022-08-08T18:42:45.715Z,51084.31
2022-08-08T18:45:44.647Z,51096.50
2022-08-08T18:48:07.519Z,51084.31
2022-08-08T18:50:34.481Z,51084.31
2022-08-08T18:53:07.277Z,51074.19
2022-08-08T18:55:33.787Z,51047.78
2022-08-08T18:58:00.186Z,51092.44
2022-08-08T19:00:26.655Z,51043.75
2022-08-08T19:03:03.986Z,51100.56
2022-08-08T19:05:45.083Z,51057.94
2022-08-08T19:08:24.891Z,51051.84
2022-08-08T19:11:01.627Z,51076.22
2022-08-08T19:13:53.308Z,51064.03
2022-08-08T19:16:19.223Z,51062.00
2022-08-08T19:18:51.559Z,51064.03
2022-08-08T19:21:30.342Z,51043.75
2022-08-08T19:23:59.603Z,51076.22
2022-08-08T19:26:30.329Z,51039.69
2022-08-08T19:28:57.821Z,51047.78
2022-08-08T19:31:31.097Z,51059.97
2022-08-08T19:34:04.643Z,51055.91
2022-08-08T19:36:45.503Z,51068.09
2022-08-08T19:39:12.088Z,51039.69
2022-08-08T19:41:41.667Z,51049.81
2022-08-08T19:44:12.949Z,51053.88
2022-08-08T19:46:53.055Z,51035.63
2022-08-08T19:49:19.813Z,51051.84
2022-08-08T19:51:49.154Z,51045.78
2022-08-08T19:54:15.567Z,51047.78
2022-08-08T19:56:48.864Z,51062.00
2022-08-08T19:59:15.511Z,51059.97
2022-08-08T20:01:59.799Z,51082.28
2022-08-08T20:04:29.525Z,51051.84
2022-08-08T20:06:56.751Z,51051.84
2022-08-08T20:09:23.506Z,51068.09
2022-08-08T20:11:52.084Z,51051.84
2022-08-08T20:14:34.177Z,51047.78
2022-08-08T20:17:02.071Z,51076.22
2022-08-08T20:19:33.497Z,51039.69
2022-08-08T20:22:20.517Z,51064.03
2022-08-08T20:24:51.966Z,51051.84
2022-08-08T20:27:21.105Z,51074.19
2022-08-08T20:29:55.828Z,51080.25
2022-08-08T20:32:28.252Z,51062.00
2022-08-08T20:35:00.843Z,51059.97
2022-08-08T20:37:46.880Z,51076.22
2022-08-08T20:40:16.897Z,51080.25
2022-08-08T20:42:54.723Z,51084.31
2022-08-08T20:45:58.016Z,51074.19
2022-08-08T20:48:08.332Z,51100.56
2022-08-08T20:50:35.270Z,51104.63
2022-08-08T20:53:01.728Z,51108.66
2022-08-08T20:55:29.141Z,51084.31
2022-08-08T20:58:02.305Z,51102.59
2022-08-08T21:00:28.980Z,51092.44
2022-08-08T21:02:56.831Z,51116.78
2022-08-08T21:05:23.571Z,51096.50
2022-08-08T21:08:36.859Z,51106.63
2022-08-08T21:10:44.943Z,51098.53
2022-08-08T21:13:11.384Z,51092.44
2022-08-08T21:16:04.186Z,51092.44
2022-08-08T21:18:24.803Z,51090.41
2022-08-08T21:20:54.587Z,51098.53
2022-08-08T21:23:58.651Z,51090.41
2022-08-08T21:26:07.760Z,51104.63
2022-08-08T21:28:36.219Z,51120.84
2022-08-08T21:31:21.970Z,51118.81
2022-08-08T21:33:49.724Z,51100.56
2022-08-08T21:36:28.851Z,51108.66
2022-08-08T21:38:56.259Z,51108.66
2022-08-08T21:41:38.671Z,51104.63
2022-08-08T21:44:09.235Z,51096.50
2022-08-08T21:48:07.614Z,51108.66
2022-08-08T21:49:23.399Z,51108.66
2022-08-08T21:54:22.852Z,51124.91
2022-08-08T21:54:54.875Z,51092.44
2022-08-08T21:57:24.734Z,51106.63
2022-08-08T22:00:03.996Z,51116.78
2022-08-08T22:02:31.728Z,51120.84
2022-08-08T22:05:00.906Z,51118.81
2022-08-08T22:07:39.694Z,51112.72
2022-08-08T22:10:09.362Z,51118.81
2022-08-08T22:12:36.311Z,51169.53
2022-08-08T22:15:04.314Z,51124.91
2022-08-08T22:17:31.535Z,51155.34
2022-08-08T22:20:10.563Z,51137.09
2022-08-08T22:22:38.524Z,51149.25
2022-08-08T22:25:17.723Z,51169.53
2022-08-08T22:28:03.842Z,51159.41
2022-08-08T22:30:40.472Z,51157.38
2022-08-08T22:34:11.271Z,51149.25
2022-08-08T22:36:04.613Z,51139.09
2022-08-08T22:38:39.512Z,51120.84
2022-08-08T22:41:16.105Z,51149.25
2022-08-08T22:44:05.700Z,51147.22
2022-08-08T22:46:38.669Z,51120.84
2022-08-08T22:49:05.946Z,51137.09
2022-08-08T22:51:34.840Z,51137.09
2022-08-08T22:54:32.762Z,51098.53
2022-08-08T22:56:55.167Z,51155.34
2022-08-08T22:59:21.775Z,51131.00
2022-08-08T23:02:01.778Z,51141.13
2022-08-08T23:04:32.301Z,51131.00
2022-08-08T23:07:02.765Z,51141.13
2022-08-08T23:09:30.421Z,51141.13
2022-08-08T23:12:18.198Z,51120.84
2022-08-08T23:14:53.332Z,51120.84
2022-08-08T23:17:30.078Z,51169.53
2022-08-08T23:19:56.631Z,51153.31
2022-08-08T23:22:23.021Z,51163.47
2022-08-08T23:24:50.574Z,51187.81
2022-08-08T23:27:37.793Z,51185.78
2022-08-08T23:30:05.501Z,51199.97
2022-08-08T23:32:35.745Z,51185.78
2022-08-08T23:35:16.921Z,51202.00
2022-08-08T23:38:00.942Z,51240.56
2022-08-08T23:40:29.072Z,51210.13
2022-08-08T23:42:56.608Z,51264.91
2022-08-08T23:49:00.795Z,51268.97
2022-08-08T23:49:05.464Z,51222.31
2022-08-08T23:50:57.362Z,51254.78
2022-08-08T23:53:55.875Z,51283.19
2022-08-08T23:56:10.455Z,51279.13
2022-08-08T23:58:38.543Z,51250.72
